createdAt,value
2023-04-20T00:02:15.384Z,10.18
2023-04-20T00:08:20.323Z,11.10
2023-04-20T00:14:21.821Z,10.77
2023-04-20T00:20:23.402Z,10.85
2023-04-20T00:26:25.047Z,10.47
2023-04-20T00:32:28.462Z,9.68
2023-04-20T00:38:30.036Z,10.63
2023-04-20T00:44:34.359Z,10.70
2023-04-20T00:50:37.370Z,11.13
2023-04-20T00:56:42.135Z,9.87
2023-04-20T01:02:43.666Z,10.35
2023-04-20T01:08:46.510Z,10.33
2023-04-20T01:14:48.507Z,9.63
2023-04-20T01:20:49.928Z,10.23
2023-04-20T01:26:52.365Z,10.47
2023-04-20T01:32:53.862Z,11.25
2023-04-20T01:38:57.008Z,10.93
2023-04-20T01:44:58.484Z,10.45
2023-04-20T01:50:59.894Z,10.13
2023-04-20T01:57:02.365Z,11.17
2023-04-20T02:03:03.991Z,10.52
2023-04-20T02:09:05.747Z,11.93
2023-04-20T02:15:09.803Z,9.48
2023-04-20T02:21:11.568Z,8.10
2023-04-20T02:27:13.140Z,10.83
2023-04-20T02:33:14.597Z,9.95
2023-04-20T02:39:16.345Z,12.43
2023-04-20T02:45:18.093Z,10.88
2023-04-20T02:51:20.999Z,9.98
2023-04-20T02:57:22.866Z,14.20
2023-04-20T03:03:24.675Z,11.82
2023-04-20T03:09:26.704Z,12.20
2023-04-20T03:15:33.118Z,11.10
2023-04-20T03:21:44.387Z,9.73
2023-04-20T03:27:47.112Z,9.27
2023-04-20T03:33:49.379Z,8.57
2023-04-20T03:39:50.866Z,7.57
2023-04-20T03:45:52.451Z,7.15
2023-04-20T03:51:54.154Z,7.05
2023-04-20T03:57:57.457Z,7.83
2023-04-20T04:04:00.674Z,5.57
2023-04-20T04:10:04.798Z,5.50
2023-04-20T04:16:07.211Z,5.47
2023-04-20T04:22:09.060Z,5.32
2023-04-20T04:28:17.505Z,6.17
2023-04-20T04:34:34.783Z,6.13
2023-04-20T04:40:38.047Z,6.37
2023-04-20T04:46:41.981Z,6.70
2023-04-20T04:52:43.716Z,7.32
2023-04-20T04:58:45.582Z,6.17
2023-04-20T05:04:47.424Z,7.50
2023-04-20T05:10:48.948Z,9.10
2023-04-20T05:16:50.413Z,8.23
2023-04-20T05:22:51.960Z,9.30
2023-04-20T05:28:53.422Z,13.30
2023-04-20T05:34:54.879Z,9.80
2023-04-20T05:40:56.542Z,13.27
2023-04-20T05:46:58.008Z,12.10
2023-04-20T05:52:59.439Z,10.57
2023-04-20T05:59:01.161Z,13.23
2023-04-20T06:05:03.190Z,13.85
2023-04-20T06:11:04.872Z,12.37
2023-04-20T06:17:06.284Z,14.32
2023-04-20T06:23:07.750Z,13.60
2023-04-20T06:29:09.182Z,12.97
2023-04-20T06:35:10.650Z,14.05
2023-04-20T06:41:12.062Z,14.20
2023-04-20T06:47:13.539Z,15.98
2023-04-20T06:53:15.330Z,14.88
2023-04-20T06:59:18.680Z,11.27
2023-04-20T07:05:20.573Z,13.25
2023-04-20T07:11:23.657Z,12.23
2023-04-20T07:17:27.490Z,14.43
2023-04-20T07:23:28.987Z,14.70
2023-04-20T07:29:31.352Z,14.43
2023-04-20T07:35:33.850Z,13.18
2023-04-20T07:41:36.212Z,12.50
2023-04-20T07:47:38.102Z,13.75
2023-04-20T07:53:39.558Z,15.32
2023-04-20T07:59:41.281Z,13.53
2023-04-20T08:05:43.122Z,13.90
2023-04-20T08:11:46.234Z,11.93
2023-04-20T08:17:47.799Z,14.02
2023-04-20T08:23:49.303Z,13.68
2023-04-20T08:29:50.856Z,15.43
2023-04-20T08:35:52.679Z,11.82
2023-04-20T08:41:55.665Z,11.93
2023-04-20T08:48:03.671Z,15.80
2023-04-20T08:54:08.221Z,15.07
2023-04-20T09:00:13.946Z,14.67
2023-04-20T09:06:16.872Z,16.23
2023-04-20T09:12:18.278Z,14.93
2023-04-20T09:18:19.771Z,14.50
2023-04-20T09:24:22.198Z,12.90
2023-04-20T09:30:23.702Z,13.57
2023-04-20T09:36:26.114Z,11.68
2023-04-20T09:42:27.940Z,12.13
2023-04-20T09:48:32.049Z,12.40
2023-04-20T09:54:33.770Z,12.20
2023-04-20T10:00:35.421Z,13.20
2023-04-20T10:06:37.307Z,12.13
2023-04-20T10:13:11.432Z,14.03
2023-04-20T10:19:13.098Z,11.68
2023-04-20T10:25:17.538Z,12.02
2023-04-20T10:31:20.466Z,11.77
2023-04-20T10:37:21.971Z,10.90
2023-04-20T10:43:23.440Z,10.83
2023-04-20T10:49:32.188Z,14.70
2023-04-20T10:55:34.351Z,12.80
2023-04-20T11:01:35.939Z,11.53
2023-04-20T11:07:46.602Z,12.23
2023-04-20T11:13:48.422Z,10.53
2023-04-20T11:19:51.425Z,12.65
2023-04-20T11:25:53.610Z,13.48
2023-04-20T11:31:55.856Z,12.57
2023-04-20T11:37:57.621Z,12.13
2023-04-20T11:43:59.467Z,12.63
2023-04-20T11:50:01.514Z,12.38
2023-04-20T11:56:02.974Z,13.05
2023-04-20T12:02:05.580Z,13.23
2023-04-20T12:08:08.184Z,13.02
2023-04-20T12:14:09.596Z,13.57
2023-04-20T12:20:12.095Z,12.93
2023-04-20T12:26:13.622Z,13.75
2023-04-20T12:32:15.039Z,14.30
2023-04-20T12:38:16.527Z,17.13
2023-04-20T12:44:18.124Z,14.90
2023-04-20T12:50:19.697Z,15.32
2023-04-20T12:56:21.558Z,16.52
2023-04-20T13:02:23.203Z,18.50
2023-04-20T13:08:24.979Z,17.63
2023-04-20T13:14:26.439Z,19.03
2023-04-20T13:20:29.656Z,18.50
2023-04-20T13:26:31.470Z,17.98
2023-04-20T13:32:33.079Z,17.10
2023-04-20T13:38:34.702Z,19.10
2023-04-20T13:44:36.225Z,17.10
2023-04-20T13:50:37.652Z,21.52
2023-04-20T13:56:39.078Z,20.65
2023-04-20T14:02:40.964Z,21.23
2023-04-20T14:08:42.461Z,21.95
2023-04-20T14:14:44.029Z,18.33
2023-04-20T14:20:45.687Z,19.60
2023-04-20T14:26:47.278Z,21.80
2023-04-20T14:32:55.516Z,23.17
2023-04-20T14:38:57.007Z,20.98
2023-04-20T14:44:58.465Z,23.20
2023-04-20T14:51:00.364Z,21.52
2023-04-20T14:57:02.603Z,23.90
2023-04-20T15:03:04.148Z,21.97
2023-04-20T15:09:06.141Z,24.02
2023-04-20T15:15:08.183Z,21.67
2023-04-20T15:21:10.775Z,19.65
2023-04-20T15:27:12.310Z,23.90
2023-04-20T15:33:13.768Z,21.83
2023-04-20T15:39:15.826Z,20.23
2023-04-20T15:45:17.332Z,22.07
2023-04-20T15:51:20.080Z,21.42
2023-04-20T15:57:21.577Z,22.13
2023-04-20T16:03:23.246Z,24.17
2023-04-20T16:09:43.295Z,23.02
2023-04-20T16:15:44.942Z,19.87
2023-04-20T16:21:46.439Z,21.90
2023-04-20T16:27:49.000Z,23.00
2023-04-20T16:33:50.451Z,21.57
2023-04-20T16:39:51.926Z,21.50
2023-04-20T16:45:53.347Z,24.00
2023-04-20T16:51:54.909Z,24.77
2023-04-20T16:58:00.110Z,24.15
2023-04-20T17:04:01.900Z,21.93
2023-04-20T17:10:03.564Z,22.05
2023-04-20T17:16:05.186Z,22.27
2023-04-20T17:22:07.277Z,26.17
2023-04-20T17:28:08.768Z,25.27
2023-04-20T17:34:10.501Z,26.63
2023-04-20T17:40:12.188Z,26.35
2023-04-20T17:46:13.815Z,29.67
2023-04-20T17:52:19.466Z,27.38
2023-04-20T17:58:21.052Z,29.65
2023-04-20T18:04:22.670Z,28.80
2023-04-20T18:10:24.743Z,30.65
2023-04-20T18:16:44.740Z,27.73
2023-04-20T18:22:48.406Z,26.17
2023-04-20T18:28:50.147Z,30.05
2023-04-20T18:34:51.901Z,31.50
2023-04-20T18:40:53.496Z,29.70
2023-04-20T18:46:55.279Z,29.13
2023-04-20T18:52:57.355Z,27.50
2023-04-20T18:59:00.287Z,29.77
2023-04-20T19:05:01.771Z,24.43
2023-04-20T19:11:03.312Z,25.92
2023-04-20T19:17:06.233Z,29.83
2023-04-20T19:23:07.965Z,28.33
2023-04-20T19:29:12.243Z,32.63
2023-04-20T19:35:13.990Z,27.27
2023-04-20T19:41:15.810Z,28.77
2023-04-20T19:47:17.599Z,31.83
2023-04-20T19:53:19.284Z,27.75
2023-04-20T19:59:21.056Z,28.80
2023-04-20T20:05:22.755Z,24.70
2023-04-20T20:11:25.319Z,24.27
2023-04-20T20:17:27.036Z,26.70
2023-04-20T20:23:28.597Z,27.48
2023-04-20T20:29:30.163Z,23.52
2023-04-20T20:35:33.166Z,25.87
2023-04-20T20:41:34.682Z,26.25
2023-04-20T20:47:36.810Z,22.27
2023-04-20T20:53:38.244Z,21.00
2023-04-20T20:59:39.774Z,23.73
2023-04-20T21:05:41.333Z,21.43
2023-04-20T21:11:42.781Z,24.50
2023-04-20T21:17:44.297Z,20.87
2023-04-20T21:23:45.759Z,20.98
2023-04-20T21:29:47.174Z,22.27
2023-04-20T21:35:48.612Z,23.00
2023-04-20T21:41:50.030Z,21.55
2023-04-20T21:47:51.724Z,20.53
2023-04-20T21:53:53.250Z,20.58
2023-04-20T21:59:54.661Z,22.25
2023-04-20T22:05:56.182Z,21.53
2023-04-20T22:11:57.671Z,21.88
2023-04-20T22:18:03.971Z,22.33
2023-04-20T22:24:05.748Z,30.00
2023-04-20T22:30:09.261Z,24.95
2023-04-20T22:36:10.730Z,31.13
2023-04-20T22:42:12.172Z,28.95
2023-04-20T22:48:13.702Z,25.83
2023-04-20T22:54:15.346Z,27.15
2023-04-20T23:00:16.973Z,27.15
2023-04-20T23:06:18.621Z,27.03
2023-04-20T23:12:20.629Z,25.98
2023-04-20T23:18:22.069Z,26.57
2023-04-20T23:24:23.461Z,27.98
2023-04-20T23:30:24.873Z,29.73
2023-04-20T23:36:26.345Z,30.73
2023-04-20T23:42:27.824Z,28.02
2023-04-20T23:48:29.397Z,34.10
2023-04-20T23:54:33.090Z,29.27
